createdAt,value
2018-12-27T00:06:27.333Z,6.83
2018-12-27T00:09:37.683Z,8.13
2018-12-27T00:12:40.558Z,7.17
2018-12-27T00:15:43.341Z,9.77
2018-12-27T00:18:53.595Z,8.00
2018-12-27T00:21:56.863Z,7.43
2018-12-27T00:24:59.876Z,7.10
2018-12-27T00:28:03.219Z,7.13
2018-12-27T00:34:35.895Z,6.73
2018-12-27T00:37:46.313Z,6.87
2018-12-27T00:40:49.057Z,7.80
2018-12-27T00:43:51.627Z,7.63
2018-12-27T00:47:01.974Z,5.97
2018-12-27T00:50:04.778Z,5.77
2018-12-27T00:53:08.017Z,8.93
2018-12-27T00:56:18.263Z,5.80
2018-12-27T00:59:21.676Z,8.00
2018-12-27T01:02:32.080Z,7.70
2018-12-27T01:05:34.847Z,5.80
2018-12-27T01:08:45.176Z,6.83
2018-12-27T01:11:47.907Z,6.23
2018-12-27T01:14:58.211Z,5.63
2018-12-27T01:18:00.969Z,5.50
2018-12-27T01:21:11.316Z,4.93
2018-12-27T01:24:13.802Z,5.70
2018-12-27T01:27:16.947Z,5.13
2018-12-27T01:30:27.302Z,5.50
2018-12-27T01:33:30.081Z,5.47
2018-12-27T01:36:32.664Z,4.90
2018-12-27T01:39:43.081Z,6.03
2018-12-27T01:42:46.215Z,5.73
2018-12-27T01:45:56.557Z,5.50
2018-12-27T01:48:59.200Z,5.87
2018-12-27T01:52:09.530Z,5.70
2018-12-27T01:55:12.313Z,5.13
2018-12-27T01:58:22.607Z,5.77
2018-12-27T02:01:25.546Z,4.47
2018-12-27T02:04:28.629Z,6.43
2018-12-27T02:07:38.965Z,4.83
2018-12-27T02:10:42.364Z,5.40
2018-12-27T02:13:52.681Z,5.23
2018-12-27T02:16:55.463Z,4.73
2018-12-27T02:19:58.003Z,4.73
2018-12-27T02:23:00.687Z,4.27
2018-12-27T02:26:11.112Z,4.10
2018-12-27T02:29:14.401Z,4.70
2018-12-27T02:32:24.708Z,4.20
2018-12-27T02:35:27.556Z,4.00
2018-12-27T02:42:00.384Z,4.30
2018-12-27T02:45:10.685Z,4.77
2018-12-27T02:48:13.822Z,5.83
2018-12-27T02:51:24.202Z,4.57
2018-12-27T02:54:27.493Z,4.50
2018-12-27T02:57:37.903Z,4.67
2018-12-27T03:00:40.627Z,4.73
2018-12-27T03:03:44.035Z,3.90
2018-12-27T03:06:54.503Z,4.30
2018-12-27T03:09:57.762Z,4.63
2018-12-27T03:13:08.046Z,4.10
2018-12-27T03:16:11.300Z,4.50
2018-12-27T03:19:21.607Z,3.90
2018-12-27T03:22:24.709Z,4.23
2018-12-27T03:25:27.733Z,4.37
2018-12-27T03:28:30.964Z,5.17
2018-12-27T03:31:41.297Z,3.97
2018-12-27T03:34:43.744Z,3.97
2018-12-27T03:37:54.058Z,5.23
2018-12-27T03:40:56.691Z,4.00
2018-12-27T03:44:06.950Z,4.00
2018-12-27T03:47:09.774Z,5.03
2018-12-27T03:50:20.075Z,5.20
2018-12-27T03:53:22.948Z,4.80
2018-12-27T03:56:33.366Z,4.87
2018-12-27T03:59:36.014Z,4.93
2018-12-27T04:02:46.439Z,6.60
2018-12-27T04:05:49.445Z,4.50
2018-12-27T04:08:52.913Z,4.10
2018-12-27T04:15:24.881Z,4.67
2018-12-27T04:18:35.132Z,4.37
2018-12-27T04:21:38.140Z,5.30
2018-12-27T04:25:08.886Z,3.90
2018-12-27T04:28:12.187Z,4.83
2018-12-27T04:31:33.230Z,4.37
2018-12-27T04:37:52.620Z,4.67
2018-12-27T04:41:02.868Z,3.70
2018-12-27T04:44:05.790Z,4.23
2018-12-27T04:47:08.831Z,3.67
2018-12-27T04:50:19.090Z,4.67
2018-12-27T04:53:25.267Z,3.73
2018-12-27T04:56:35.529Z,3.60
2018-12-27T04:59:38.266Z,4.33
2018-12-27T05:02:41.468Z,3.80
2018-12-27T05:05:51.791Z,3.37
2018-12-27T05:08:54.931Z,3.73
2018-12-27T05:12:05.195Z,4.10
2018-12-27T05:15:07.682Z,3.80
2018-12-27T05:18:11.060Z,5.27
2018-12-27T05:21:14.129Z,3.57
2018-12-27T05:24:17.295Z,4.10
2018-12-27T05:27:20.159Z,4.73
2018-12-27T05:30:30.432Z,3.90
2018-12-27T05:33:33.070Z,3.57
2018-12-27T05:36:43.351Z,3.63
2018-12-27T05:39:46.736Z,4.13
2018-12-27T05:42:56.970Z,3.57
2018-12-27T05:46:00.408Z,3.53
2018-12-27T05:49:10.700Z,4.37
2018-12-27T05:52:13.247Z,3.40
2018-12-27T05:55:23.518Z,3.83
2018-12-27T05:58:26.674Z,4.30
2018-12-27T06:01:36.999Z,3.10
2018-12-27T06:04:39.721Z,4.77
2018-12-27T06:07:42.504Z,3.77
2018-12-27T06:10:52.826Z,3.30
2018-12-27T06:13:55.379Z,3.23
2018-12-27T06:17:05.638Z,4.07
2018-12-27T06:20:08.184Z,3.83
2018-12-27T06:23:11.122Z,3.97
2018-12-27T06:26:21.371Z,2.63
2018-12-27T06:29:24.234Z,5.00
2018-12-27T06:32:34.514Z,3.37
2018-12-27T06:35:37.192Z,3.30
2018-12-27T06:38:47.492Z,3.10
2018-12-27T06:41:50.522Z,3.27
2018-12-27T06:45:00.786Z,3.13
2018-12-27T06:48:03.848Z,3.40
2018-12-27T06:51:14.100Z,3.03
2018-12-27T06:54:17.260Z,3.00
2018-12-27T06:57:27.559Z,3.73
2018-12-27T07:00:30.264Z,4.10
2018-12-27T07:03:40.585Z,3.53
2018-12-27T07:06:43.983Z,3.63
2018-12-27T07:09:54.285Z,3.80
2018-12-27T07:12:56.806Z,4.63
2018-12-27T07:16:07.044Z,5.03
2018-12-27T07:19:09.709Z,3.50
2018-12-27T07:22:19.977Z,3.33
2018-12-27T07:25:22.875Z,3.03
2018-12-27T07:28:25.794Z,3.50
2018-12-27T07:31:29.218Z,4.40
2018-12-27T07:34:39.510Z,4.90
2018-12-27T07:37:42.150Z,3.90
2018-12-27T07:40:52.428Z,4.00
2018-12-27T07:43:55.475Z,3.60
2018-12-27T07:47:05.814Z,4.00
2018-12-27T07:50:08.854Z,4.53
2018-12-27T07:53:19.142Z,4.27
2018-12-27T07:56:21.807Z,4.00
2018-12-27T07:59:24.856Z,3.33
2018-12-27T08:02:35.156Z,6.00
2018-12-27T08:05:37.598Z,4.27
2018-12-27T08:08:40.903Z,3.70
2018-12-27T08:11:51.203Z,3.90
2018-12-27T08:14:54.428Z,4.40
2018-12-27T08:18:04.693Z,4.67
2018-12-27T08:21:07.425Z,4.50
2018-12-27T08:24:10.246Z,4.77
2018-12-27T08:27:13.193Z,5.53
2018-12-27T08:30:15.809Z,3.80
2018-12-27T08:33:26.104Z,3.73
2018-12-27T08:36:28.614Z,3.63
2018-12-27T08:39:38.904Z,3.70
2018-12-27T08:42:41.522Z,4.80
2018-12-27T08:45:51.791Z,3.87
2018-12-27T08:48:54.720Z,4.77
2018-12-27T08:52:05.022Z,10.87
2018-12-27T08:55:08.205Z,6.63
2018-12-27T08:58:18.448Z,5.03
2018-12-27T09:01:21.114Z,4.17
2018-12-27T09:04:31.393Z,5.77
2018-12-27T09:07:34.093Z,4.93
2018-12-27T09:10:37.295Z,4.60
2018-12-27T09:13:47.576Z,3.90
2018-12-27T09:16:50.532Z,3.63
2018-12-27T09:19:53.453Z,5.30
2018-12-27T09:22:56.217Z,4.80
2018-12-27T09:26:06.485Z,3.80
2018-12-27T09:29:09.915Z,5.40
2018-12-27T09:32:13.180Z,3.87
2018-12-27T09:35:26.525Z,4.17
2018-12-27T09:38:27.801Z,5.03
2018-12-27T09:41:38.036Z,4.67
2018-12-27T09:44:40.745Z,4.10
2018-12-27T09:47:51.006Z,4.73
2018-12-27T09:50:53.804Z,3.60
2018-12-27T09:57:25.534Z,3.40
2018-12-27T10:00:35.965Z,3.63
2018-12-27T10:03:38.827Z,3.93
2018-12-27T10:06:41.553Z,3.53
2018-12-27T10:09:51.828Z,2.83
2018-12-27T10:12:55.014Z,4.13
2018-12-27T10:16:05.319Z,3.60
2018-12-27T10:19:08.177Z,3.80
2018-12-27T10:22:18.416Z,3.30
2018-12-27T10:25:20.927Z,6.57
2018-12-27T10:28:31.207Z,6.00
2018-12-27T10:31:33.877Z,4.43
2018-12-27T10:34:44.165Z,3.30
2018-12-27T10:37:46.994Z,3.57
2018-12-27T10:40:57.256Z,3.93
2018-12-27T10:43:59.762Z,4.07
2018-12-27T10:47:10.019Z,3.33
2018-12-27T10:50:13.336Z,3.63
2018-12-27T10:53:23.600Z,2.33
2018-12-27T10:56:26.717Z,2.60
2018-12-27T11:02:54.440Z,3.50
2018-12-27T11:05:57.156Z,3.30
2018-12-27T11:08:59.908Z,4.30
2018-12-27T11:12:10.246Z,3.43
2018-12-27T11:15:13.366Z,3.30
2018-12-27T11:18:23.655Z,3.10
2018-12-27T11:21:26.970Z,2.97
2018-12-27T11:24:29.790Z,4.13
2018-12-27T11:27:32.972Z,2.70
2018-12-27T11:30:43.272Z,2.97
2018-12-27T11:33:45.799Z,2.60
2018-12-27T11:36:48.842Z,2.07
2018-12-27T11:39:59.178Z,3.73
2018-12-27T11:43:02.005Z,2.63
2018-12-27T11:46:12.258Z,2.27
2018-12-27T11:49:15.485Z,2.10
2018-12-27T11:52:25.773Z,4.07
2018-12-27T11:55:28.610Z,4.20
2018-12-27T11:58:38.889Z,2.77
2018-12-27T12:01:42.366Z,3.03
2018-12-27T12:04:45.361Z,2.20
2018-12-27T12:07:55.661Z,2.10
2018-12-27T12:10:58.241Z,3.93
2018-12-27T12:14:08.543Z,2.90
2018-12-27T12:17:11.822Z,2.60
2018-12-27T12:20:22.127Z,2.73
2018-12-27T12:23:24.701Z,2.63
2018-12-27T12:26:27.578Z,3.13
2018-12-27T12:29:30.723Z,2.50
2018-12-27T12:32:40.961Z,3.93
2018-12-27T12:35:44.333Z,4.33
2018-12-27T12:38:54.644Z,3.00
2018-12-27T12:41:57.897Z,3.57
2018-12-27T12:45:09.076Z,3.60
2018-12-27T12:48:11.957Z,4.30
2018-12-27T12:51:23.139Z,2.80
2018-12-27T12:54:26.755Z,3.57
2018-12-27T12:57:37.230Z,6.13
2018-12-27T13:00:40.531Z,3.93
2018-12-27T13:03:50.820Z,5.83
2018-12-27T13:06:54.055Z,3.37
2018-12-27T13:13:32.766Z,3.93
2018-12-27T13:16:35.309Z,8.23
2018-12-27T13:19:45.609Z,4.83
2018-12-27T13:22:48.383Z,4.87
2018-12-27T13:25:51.292Z,3.43
2018-12-27T13:29:01.538Z,3.67
2018-12-27T13:32:05.076Z,5.10
2018-12-27T13:35:15.409Z,3.37
2018-12-27T13:38:18.788Z,3.73
2018-12-27T13:41:21.771Z,3.50
2018-12-27T13:44:32.088Z,4.00
2018-12-27T13:47:34.970Z,4.40
2018-12-27T13:50:45.270Z,3.40
2018-12-27T13:53:48.387Z,4.87
2018-12-27T13:56:51.254Z,2.63
2018-12-27T14:00:01.546Z,4.00
2018-12-27T14:03:04.872Z,3.37
2018-12-27T14:06:15.128Z,3.03
2018-12-27T14:09:17.851Z,5.87
2018-12-27T14:12:28.174Z,2.67
2018-12-27T14:15:31.567Z,3.83
2018-12-27T14:18:34.799Z,3.43
2018-12-27T14:21:45.093Z,2.97
2018-12-27T14:24:48.341Z,3.47
2018-12-27T14:27:51.415Z,4.07
2018-12-27T14:30:54.639Z,2.90
2018-12-27T14:34:04.882Z,3.20
2018-12-27T14:37:07.779Z,2.93
2018-12-27T14:40:18.119Z,6.23
2018-12-27T14:43:20.867Z,6.80
2018-12-27T14:46:31.149Z,5.50
2018-12-27T14:49:33.923Z,8.27
2018-12-27T14:52:44.172Z,9.50
2018-12-27T14:55:46.802Z,9.20
2018-12-27T14:58:57.068Z,9.40
2018-12-27T15:02:00.446Z,7.77
2018-12-27T15:05:10.683Z,8.77
2018-12-27T15:08:13.608Z,7.60
2018-12-27T15:14:52.820Z,9.90
2018-12-27T15:17:55.580Z,8.50
2018-12-27T15:21:05.854Z,7.83
2018-12-27T15:24:09.075Z,8.53
2018-12-27T15:27:19.359Z,6.73
2018-12-27T15:30:22.419Z,9.73
2018-12-27T15:33:32.733Z,11.50
2018-12-27T15:36:36.260Z,7.73
2018-12-27T15:39:46.563Z,7.33
2018-12-27T15:42:49.876Z,6.90
2018-12-27T15:45:52.770Z,5.90
2018-12-27T15:49:03.100Z,7.00
2018-12-27T15:52:05.753Z,6.43
2018-12-27T15:55:08.294Z,8.20
2018-12-27T15:58:18.661Z,6.83
2018-12-27T16:01:21.160Z,7.07
2018-12-27T16:04:31.467Z,8.07
2018-12-27T16:07:34.516Z,6.80
2018-12-27T16:10:37.392Z,6.80
2018-12-27T16:13:47.697Z,6.00
2018-12-27T16:16:50.160Z,6.47
2018-12-27T16:20:00.437Z,6.47
2018-12-27T16:23:03.186Z,6.07
2018-12-27T16:26:06.503Z,8.47
2018-12-27T16:29:09.257Z,9.67
2018-12-27T16:32:19.771Z,8.00
2018-12-27T16:35:23.021Z,6.80
2018-12-27T16:38:33.352Z,6.40
2018-12-27T16:41:36.026Z,6.63
2018-12-27T16:44:46.352Z,7.40
2018-12-27T16:47:48.805Z,7.20
2018-12-27T16:50:59.083Z,6.87
2018-12-27T16:54:02.253Z,8.93
2018-12-27T16:57:19.495Z,9.23
2018-12-27T17:00:17.715Z,6.53
2018-12-27T17:03:28.031Z,7.70
2018-12-27T17:06:31.037Z,7.77
2018-12-27T17:09:41.263Z,8.93
2018-12-27T17:12:44.423Z,7.93
2018-12-27T17:15:54.766Z,7.17
2018-12-27T17:18:57.874Z,7.37
2018-12-27T17:22:01.057Z,9.13
2018-12-27T17:25:03.669Z,8.67
2018-12-27T17:28:06.537Z,7.40
2018-12-27T17:31:16.825Z,8.10
2018-12-27T17:34:19.391Z,7.43
2018-12-27T17:37:29.666Z,7.00
2018-12-27T17:40:32.731Z,8.43
2018-12-27T17:43:43.010Z,14.73
2018-12-27T17:46:46.153Z,11.97
2018-12-27T17:49:56.440Z,14.43
2018-12-27T17:52:59.713Z,12.87
2018-12-27T17:56:09.992Z,11.33
2018-12-27T17:59:12.795Z,14.50
2018-12-27T18:02:23.231Z,12.60
2018-12-27T18:05:25.904Z,12.10
2018-12-27T18:08:36.278Z,13.10
2018-12-27T18:11:38.976Z,12.77
2018-12-27T18:18:32.004Z,11.87
2018-12-27T18:21:35.183Z,10.90
2018-12-27T18:24:38.202Z,13.47
2018-12-27T18:27:41.091Z,11.50
2018-12-27T18:30:44.161Z,11.00
2018-12-27T18:33:54.447Z,10.80
2018-12-27T18:36:57.972Z,10.57
2018-12-27T18:40:01.045Z,10.03
2018-12-27T18:43:11.309Z,9.10
2018-12-27T18:46:14.242Z,10.53
2018-12-27T18:49:24.519Z,9.83
2018-12-27T18:52:27.038Z,10.23
2018-12-27T18:55:37.349Z,10.57
2018-12-27T18:58:39.955Z,13.20
2018-12-27T19:01:43.286Z,11.57
2018-12-27T19:04:53.551Z,10.97
2018-12-27T19:07:56.927Z,9.83
2018-12-27T19:11:18.788Z,8.93
2018-12-27T19:14:29.086Z,9.27
2018-12-27T19:17:34.972Z,9.33
2018-12-27T19:20:49.188Z,8.83
2018-12-27T19:23:52.350Z,9.87
2018-12-27T19:26:55.584Z,9.53
2018-12-27T19:30:05.948Z,9.80
2018-12-27T19:33:08.733Z,11.93
2018-12-27T19:36:18.997Z,9.57
2018-12-27T19:39:21.874Z,8.87
2018-12-27T19:42:32.235Z,7.93
2018-12-27T19:45:35.547Z,7.40
2018-12-27T19:48:45.849Z,7.63
2018-12-27T19:51:48.372Z,9.13
2018-12-27T19:54:58.678Z,10.17
2018-12-27T19:58:01.348Z,10.77
2018-12-27T20:01:04.691Z,8.07
2018-12-27T20:04:14.937Z,9.30
2018-12-27T20:07:17.454Z,10.77
2018-12-27T20:10:27.709Z,8.83
2018-12-27T20:13:30.286Z,9.17
2018-12-27T20:16:40.571Z,11.60
2018-12-27T20:19:43.362Z,7.73
2018-12-27T20:22:46.212Z,9.67
2018-12-27T20:25:48.961Z,8.77
2018-12-27T20:28:51.963Z,7.70
2018-12-27T20:32:02.324Z,7.13
2018-12-27T20:35:05.737Z,6.77
2018-12-27T20:38:16.022Z,7.57
2018-12-27T20:41:18.843Z,8.33
2018-12-27T20:44:29.127Z,7.40
2018-12-27T20:47:32.047Z,8.60
2018-12-27T20:50:42.321Z,8.40
2018-12-27T20:53:44.814Z,9.60
2018-12-27T20:56:55.112Z,8.53
2018-12-27T20:59:57.861Z,8.17
2018-12-27T21:03:08.200Z,7.37
2018-12-27T21:06:11.543Z,7.00
2018-12-27T21:09:21.849Z,9.57
2018-12-27T21:12:24.402Z,6.37
2018-12-27T21:15:27.691Z,6.27
2018-12-27T21:18:38.182Z,5.37
2018-12-27T21:21:41.421Z,5.53
2018-12-27T21:24:51.727Z,6.40
2018-12-27T21:27:54.510Z,6.63
2018-12-27T21:31:04.808Z,7.73
2018-12-27T21:34:07.794Z,7.00
2018-12-27T21:37:18.081Z,6.87
2018-12-27T21:40:20.745Z,6.77
2018-12-27T21:43:31.023Z,6.23
2018-12-27T21:46:34.223Z,7.80
2018-12-27T21:49:44.580Z,6.90
2018-12-27T21:52:47.209Z,7.67
2018-12-27T21:55:57.491Z,6.93
2018-12-27T21:59:00.591Z,7.10
2018-12-27T22:02:03.747Z,9.77
2018-12-27T22:05:06.425Z,9.37
2018-12-27T22:08:19.293Z,8.27
2018-12-27T22:11:22.521Z,6.97
2018-12-27T22:14:25.384Z,7.17
2018-12-27T22:17:28.288Z,9.40
2018-12-27T22:20:38.685Z,7.90
2018-12-27T22:23:41.919Z,9.07
2018-12-27T22:26:45.120Z,8.17
2018-12-27T22:29:47.779Z,9.87
2018-12-27T22:32:58.057Z,8.40
2018-12-27T22:36:00.533Z,9.33
2018-12-27T22:42:38.441Z,8.77
2018-12-27T22:45:41.742Z,10.03
2018-12-27T22:48:44.412Z,8.77
2018-12-27T22:51:54.704Z,10.07
2018-12-27T22:54:57.553Z,12.03
2018-12-27T22:58:07.831Z,12.37
2018-12-27T23:01:10.696Z,12.03
2018-12-27T23:04:20.938Z,12.17
2018-12-27T23:07:24.279Z,10.87
2018-12-27T23:10:34.532Z,12.70
2018-12-27T23:13:37.653Z,9.83
2018-12-27T23:16:47.955Z,9.00
2018-12-27T23:19:50.643Z,10.93
2018-12-27T23:23:00.907Z,11.23
2018-12-27T23:26:04.376Z,9.43
2018-12-27T23:29:07.503Z,11.03
2018-12-27T23:32:10.322Z,11.60
2018-12-27T23:35:20.653Z,10.57
2018-12-27T23:38:24.077Z,11.90
2018-12-27T23:41:34.387Z,13.80
2018-12-27T23:44:37.019Z,9.93
2018-12-27T23:47:47.295Z,9.80
2018-12-27T23:50:50.256Z,11.27
2018-12-27T23:54:00.568Z,8.90
2018-12-27T23:57:03.922Z,10.03
